createdAt,value
2022-10-01T00:00:43.027Z,17.03
2022-10-01T00:02:45.253Z,17.02
2022-10-01T00:04:47.217Z,17.01
2022-10-01T00:06:51.846Z,16.99
2022-10-01T00:08:55.159Z,16.97
2022-10-01T00:11:04.093Z,16.97
2022-10-01T00:13:07.086Z,16.98
2022-10-01T00:15:13.312Z,17.02
2022-10-01T00:17:15.361Z,17.05
2022-10-01T00:19:16.990Z,17.01
2022-10-01T00:21:21.780Z,16.98
2022-10-01T00:23:23.441Z,16.99
2022-10-01T00:25:25.590Z,16.95
2022-10-01T00:27:28.146Z,16.99
2022-10-01T00:29:29.855Z,16.96
2022-10-01T00:31:32.340Z,16.96
2022-10-01T00:33:34.913Z,16.95
2022-10-01T00:35:38.032Z,16.98
2022-10-01T00:37:39.706Z,16.98
2022-10-01T00:39:41.533Z,16.91
2022-10-01T00:41:43.823Z,16.98
2022-10-01T00:43:55.710Z,16.94
2022-10-01T00:46:08.116Z,16.97
2022-10-01T00:48:09.830Z,16.95
2022-10-01T00:50:30.068Z,16.91
2022-10-01T00:52:34.235Z,16.85
2022-10-01T00:54:43.054Z,16.90
2022-10-01T00:56:45.350Z,16.85
2022-10-01T00:58:47.238Z,16.86
2022-10-01T01:00:55.013Z,16.84
2022-10-01T01:02:56.807Z,16.86
2022-10-01T01:04:59.337Z,16.83
2022-10-01T01:07:04.466Z,16.84
2022-10-01T01:09:06.134Z,16.75
2022-10-01T01:11:18.471Z,16.72
2022-10-01T01:13:33.310Z,16.74
2022-10-01T01:15:37.684Z,16.66
2022-10-01T01:18:04.706Z,16.71
2022-10-01T01:20:26.183Z,16.67
2022-10-01T01:22:33.336Z,16.72
2022-10-01T01:24:50.230Z,16.56
2022-10-01T01:27:24.408Z,16.51
2022-10-01T01:29:39.828Z,16.61
2022-10-01T01:31:49.004Z,16.50
2022-10-01T01:33:54.175Z,16.58
2022-10-01T01:36:07.337Z,16.51
2022-10-01T01:38:14.622Z,16.58
2022-10-01T01:40:18.667Z,16.55
2022-10-01T01:42:31.391Z,16.57
2022-10-01T01:44:38.383Z,16.42
2022-10-01T01:46:44.203Z,16.54
2022-10-01T01:48:49.845Z,16.49
2022-10-01T01:50:58.153Z,16.50
2022-10-01T01:53:00.837Z,16.45
2022-10-01T01:55:07.481Z,16.37
2022-10-01T01:57:10.285Z,16.34
2022-10-01T01:59:13.806Z,16.40
2022-10-01T02:01:51.255Z,16.45
2022-10-01T02:03:53.151Z,16.43
2022-10-01T02:06:33.214Z,16.37
2022-10-01T02:08:44.655Z,16.40
2022-10-01T02:11:15.021Z,16.39
2022-10-01T02:13:27.832Z,16.42
2022-10-01T02:15:48.220Z,16.37
2022-10-01T02:17:56.428Z,16.40
2022-10-01T02:20:08.721Z,16.34
2022-10-01T02:22:37.874Z,16.29
2022-10-01T02:24:57.209Z,16.32
2022-10-01T02:27:05.642Z,16.28
2022-10-01T02:29:13.259Z,16.27
2022-10-01T02:31:18.085Z,16.21
2022-10-01T02:33:27.422Z,16.21
2022-10-01T02:35:31.713Z,16.22
2022-10-01T02:37:36.740Z,16.28
2022-10-01T02:39:43.819Z,16.21
2022-10-01T02:41:48.122Z,16.17
2022-10-01T02:43:56.466Z,16.14
2022-10-01T02:46:08.573Z,16.13
2022-10-01T02:48:12.426Z,16.11
2022-10-01T02:50:15.000Z,16.03
2022-10-01T02:52:42.725Z,16.03
2022-10-01T02:54:54.870Z,16.00
2022-10-01T02:57:16.895Z,15.93
2022-10-01T02:59:21.464Z,16.04
2022-10-01T03:01:23.379Z,15.91
2022-10-01T03:03:26.221Z,16.01
2022-10-01T03:05:28.130Z,16.01
2022-10-01T03:07:31.619Z,15.93
2022-10-01T03:09:34.847Z,15.98
2022-10-01T03:11:36.824Z,15.94
2022-10-01T03:13:38.580Z,15.80
2022-10-01T03:15:40.371Z,15.83
2022-10-01T03:17:42.172Z,15.83
2022-10-01T03:19:43.902Z,15.77
2022-10-01T03:21:46.094Z,15.75
2022-10-01T03:23:47.722Z,15.76
2022-10-01T03:25:49.699Z,15.73
2022-10-01T03:27:51.878Z,15.74
2022-10-01T03:29:53.607Z,15.75
2022-10-01T03:31:57.100Z,15.71
2022-10-01T03:34:00.465Z,15.71
2022-10-01T03:36:05.173Z,15.66
2022-10-01T03:38:08.293Z,15.68
2022-10-01T03:40:10.127Z,15.74
2022-10-01T03:42:14.019Z,15.66
2022-10-01T03:44:15.712Z,15.66
2022-10-01T03:46:18.515Z,15.64
2022-10-01T03:48:22.499Z,15.71
2022-10-01T03:50:24.290Z,15.69
2022-10-01T03:52:25.995Z,15.69
2022-10-01T03:54:27.781Z,15.61
2022-10-01T03:56:29.790Z,15.61
2022-10-01T03:58:31.474Z,15.55
2022-10-01T04:00:33.146Z,15.57
2022-10-01T04:02:34.942Z,15.53
2022-10-01T04:04:39.735Z,15.50
2022-10-01T04:06:44.450Z,15.47
2022-10-01T04:08:46.322Z,15.50
2022-10-01T04:10:49.662Z,15.41
2022-10-01T04:12:51.897Z,15.45
2022-10-01T04:14:53.523Z,15.45
2022-10-01T04:16:55.210Z,15.47
2022-10-01T04:18:56.904Z,15.45
2022-10-01T04:21:00.740Z,15.41
2022-10-01T04:23:02.710Z,15.41
2022-10-01T04:25:04.797Z,15.37
2022-10-01T04:27:06.416Z,15.42
2022-10-01T04:29:08.409Z,15.41
2022-10-01T04:31:26.453Z,15.31
2022-10-01T04:33:28.255Z,15.34
2022-10-01T04:35:30.049Z,15.34
2022-10-01T04:37:31.722Z,15.28
2022-10-01T04:39:33.331Z,15.23
2022-10-01T04:41:35.224Z,15.23
2022-10-01T04:43:37.365Z,15.23
2022-10-01T04:45:39.674Z,15.23
2022-10-01T04:47:49.229Z,15.25
2022-10-01T04:49:50.891Z,15.15
2022-10-01T04:51:54.605Z,15.18
2022-10-01T04:53:56.257Z,15.20
2022-10-01T04:55:57.947Z,15.24
2022-10-01T04:57:59.663Z,15.26
2022-10-01T05:00:02.163Z,15.29
2022-10-01T05:02:03.869Z,15.25
2022-10-01T05:04:05.733Z,15.31
2022-10-01T05:06:07.513Z,15.27
2022-10-01T05:08:09.183Z,15.24
2022-10-01T05:10:13.828Z,15.29
2022-10-01T05:12:15.508Z,15.31
2022-10-01T05:14:17.144Z,15.27
2022-10-01T05:16:18.874Z,15.24
2022-10-01T05:18:20.675Z,15.26
2022-10-01T05:20:26.328Z,15.15
2022-10-01T05:22:28.566Z,15.16
2022-10-01T05:24:30.316Z,15.22
2022-10-01T05:26:32.376Z,15.21
2022-10-01T05:28:35.727Z,15.20
2022-10-01T05:30:37.594Z,15.23
2022-10-01T05:32:39.494Z,15.10
2022-10-01T05:34:41.366Z,15.15
2022-10-01T05:36:43.028Z,15.13
2022-10-01T05:38:44.666Z,15.14
2022-10-01T05:40:51.696Z,15.06
2022-10-01T05:42:54.926Z,15.12
2022-10-01T05:44:56.926Z,15.06
2022-10-01T05:46:58.570Z,14.93
2022-10-01T05:49:00.588Z,15.10
2022-10-01T05:51:04.352Z,15.01
2022-10-01T05:53:08.144Z,15.00
2022-10-01T05:55:11.208Z,15.06
2022-10-01T05:57:13.153Z,14.99
2022-10-01T05:59:15.213Z,15.00
2022-10-01T06:01:17.049Z,14.97
2022-10-01T06:03:18.730Z,15.01
2022-10-01T06:05:20.857Z,15.05
2022-10-01T06:07:22.491Z,15.03
2022-10-01T06:09:24.212Z,15.00
2022-10-01T06:11:27.165Z,14.96
2022-10-01T06:13:29.391Z,14.99
2022-10-01T06:15:40.049Z,14.94
2022-10-01T06:17:45.149Z,14.97
2022-10-01T06:19:46.832Z,15.00
2022-10-01T06:21:48.543Z,14.89
2022-10-01T06:23:51.222Z,14.94
2022-10-01T06:25:52.845Z,14.91
2022-10-01T06:27:58.232Z,14.83
2022-10-01T06:29:59.990Z,14.87
2022-10-01T06:32:01.935Z,14.92
2022-10-01T06:34:03.951Z,14.89
2022-10-01T06:36:05.778Z,14.86
2022-10-01T06:38:08.522Z,14.87
2022-10-01T06:40:10.582Z,14.89
2022-10-01T06:42:12.230Z,14.88
2022-10-01T06:44:13.889Z,14.85
2022-10-01T06:46:15.552Z,14.87
2022-10-01T06:48:20.014Z,14.79
2022-10-01T06:50:22.284Z,14.82
2022-10-01T06:52:42.665Z,14.89
2022-10-01T06:54:44.670Z,14.83
2022-10-01T06:56:46.493Z,14.84
2022-10-01T06:58:49.852Z,14.94
2022-10-01T07:00:51.547Z,14.94
2022-10-01T07:02:54.266Z,14.94
2022-10-01T07:04:59.522Z,14.94
2022-10-01T07:07:01.190Z,14.95
2022-10-01T07:09:02.826Z,15.02
2022-10-01T07:11:05.106Z,14.98
2022-10-01T07:13:16.445Z,15.04
2022-10-01T07:15:20.251Z,15.07
2022-10-01T07:17:22.586Z,15.08
2022-10-01T07:19:24.241Z,15.12
2022-10-01T07:21:26.542Z,15.12
2022-10-01T07:23:28.243Z,15.08
2022-10-01T07:25:29.971Z,15.10
2022-10-01T07:27:31.635Z,15.06
2022-10-01T07:29:33.419Z,15.15
2022-10-01T07:31:35.315Z,15.11
2022-10-01T07:33:40.998Z,15.14
2022-10-01T07:35:42.670Z,15.17
2022-10-01T07:37:44.279Z,15.20
2022-10-01T07:39:45.899Z,15.14
2022-10-01T07:41:47.607Z,15.20
2022-10-01T07:43:49.879Z,15.25
2022-10-01T07:45:55.185Z,15.24
2022-10-01T07:47:59.999Z,15.20
2022-10-01T07:50:01.890Z,15.31
2022-10-01T07:52:10.915Z,15.37
2022-10-01T07:54:15.044Z,15.31
2022-10-01T07:56:16.750Z,15.33
2022-10-01T07:58:18.914Z,15.36
2022-10-01T08:00:21.635Z,15.28
2022-10-01T08:02:23.339Z,15.34
2022-10-01T08:04:54.319Z,15.41
2022-10-01T08:06:57.221Z,15.22
2022-10-01T08:08:58.990Z,15.33
2022-10-01T08:11:02.539Z,15.34
2022-10-01T08:13:14.677Z,15.43
2022-10-01T08:15:17.703Z,15.46
2022-10-01T08:17:19.354Z,15.47
2022-10-01T08:19:21.016Z,15.55
2022-10-01T08:21:22.687Z,15.52
2022-10-01T08:23:24.359Z,15.57
2022-10-01T08:25:26.178Z,15.59
2022-10-01T08:27:28.268Z,15.69
2022-10-01T08:29:29.879Z,15.65
2022-10-01T08:31:32.210Z,15.69
2022-10-01T08:33:35.022Z,15.78
2022-10-01T08:35:39.761Z,15.85
2022-10-01T08:37:41.450Z,15.95
2022-10-01T08:39:43.077Z,15.93
2022-10-01T08:42:03.757Z,15.90
2022-10-01T08:44:07.383Z,15.88
2022-10-01T08:46:18.057Z,15.98
2022-10-01T08:48:29.513Z,15.94
2022-10-01T08:50:41.221Z,16.05
2022-10-01T08:52:52.303Z,16.13
2022-10-01T08:55:11.692Z,16.24
2022-10-01T08:57:17.974Z,16.27
2022-10-01T08:59:38.371Z,16.26
2022-10-01T09:01:40.068Z,16.25
2022-10-01T09:03:42.051Z,16.30
2022-10-01T09:05:55.857Z,16.38
2022-10-01T09:08:15.351Z,16.45
2022-10-01T09:10:27.375Z,16.55
2022-10-01T09:12:43.222Z,16.42
2022-10-01T09:15:00.285Z,16.61
2022-10-01T09:17:05.938Z,16.62
2022-10-01T09:19:16.302Z,16.65
2022-10-01T09:21:23.137Z,16.62
2022-10-01T09:23:34.757Z,16.62
2022-10-01T09:25:38.502Z,16.78
2022-10-01T09:27:40.997Z,16.78
2022-10-01T09:29:58.027Z,16.76
2022-10-01T09:32:03.478Z,16.63
2022-10-01T09:34:13.262Z,16.78
2022-10-01T09:36:47.597Z,16.81
2022-10-01T09:39:17.833Z,16.75
2022-10-01T09:41:20.152Z,16.96
2022-10-01T09:43:24.321Z,16.98
2022-10-01T09:45:26.041Z,17.00
2022-10-01T09:47:28.215Z,16.86
2022-10-01T09:49:39.565Z,17.07
2022-10-01T09:51:55.509Z,17.11
2022-10-01T09:54:00.233Z,17.34
2022-10-01T09:56:12.279Z,17.40
2022-10-01T09:58:23.619Z,17.54
2022-10-01T10:00:27.070Z,17.59
2022-10-01T10:02:36.529Z,17.73
2022-10-01T10:04:38.512Z,17.89
2022-10-01T10:06:40.180Z,17.93
2022-10-01T10:08:45.703Z,17.98
2022-10-01T10:11:08.977Z,18.10
2022-10-01T10:13:14.043Z,18.02
2022-10-01T10:15:19.042Z,18.00
2022-10-01T10:17:22.150Z,18.04
2022-10-01T10:19:32.991Z,17.94
2022-10-01T10:21:35.291Z,18.16
2022-10-01T10:23:47.632Z,18.28
2022-10-01T10:26:07.101Z,18.22
2022-10-01T10:28:24.389Z,18.26
2022-10-01T10:30:26.562Z,18.23
2022-10-01T10:32:28.790Z,18.26
2022-10-01T10:34:40.882Z,18.54
2022-10-01T10:36:44.399Z,18.61
2022-10-01T10:38:49.932Z,18.73
2022-10-01T10:40:57.759Z,18.78
2022-10-01T10:43:00.014Z,18.73
2022-10-01T10:45:03.639Z,18.88
2022-10-01T10:47:13.662Z,18.91
2022-10-01T10:49:23.727Z,19.01
2022-10-01T10:51:27.774Z,19.12
2022-10-01T10:53:40.721Z,19.09
2022-10-01T10:55:53.515Z,19.26
2022-10-01T10:57:57.718Z,19.26
2022-10-01T11:00:21.677Z,19.35
2022-10-01T11:02:25.584Z,19.40
2022-10-01T11:04:41.262Z,19.56
2022-10-01T11:06:43.420Z,19.72
2022-10-01T11:08:57.232Z,19.64
2022-10-01T11:11:17.269Z,19.62
2022-10-01T11:13:25.288Z,19.75
2022-10-01T11:15:30.146Z,19.75
2022-10-01T11:17:49.916Z,19.68
2022-10-01T11:20:34.021Z,19.59
2022-10-01T11:22:41.306Z,19.50
2022-10-01T11:24:53.222Z,19.65
2022-10-01T11:27:03.757Z,19.63
2022-10-01T11:29:19.039Z,19.65
2022-10-01T11:31:22.526Z,19.65
2022-10-01T11:33:44.987Z,19.76
2022-10-01T11:36:21.246Z,19.85
2022-10-01T11:38:50.206Z,20.07
2022-10-01T11:41:01.185Z,20.23
2022-10-01T11:43:19.238Z,20.25
2022-10-01T11:45:49.334Z,20.02
2022-10-01T11:47:57.312Z,20.19
2022-10-01T11:50:04.366Z,20.10
2022-10-01T11:52:33.983Z,20.03
2022-10-01T11:54:52.135Z,19.99
2022-10-01T11:57:17.014Z,19.81
2022-10-01T11:59:33.369Z,19.73
2022-10-01T12:01:44.095Z,19.80
2022-10-01T12:03:55.727Z,19.95
2022-10-01T12:05:58.980Z,19.95
2022-10-01T12:08:14.177Z,19.87
2022-10-01T12:10:59.007Z,19.83
2022-10-01T12:13:16.001Z,19.76
2022-10-01T12:15:24.148Z,19.81
2022-10-01T12:17:40.288Z,19.87
2022-10-01T12:19:46.948Z,19.97
2022-10-01T12:21:57.629Z,20.18
2022-10-01T12:24:05.225Z,20.08
2022-10-01T12:26:14.582Z,20.21
2022-10-01T12:28:26.252Z,20.28
2022-10-01T12:31:15.684Z,20.40
2022-10-01T12:33:17.286Z,20.69
2022-10-01T12:35:52.280Z,20.80
2022-10-01T12:38:03.697Z,20.82
2022-10-01T12:40:17.996Z,20.78
2022-10-01T12:42:37.885Z,20.94
2022-10-01T12:45:09.966Z,21.09
2022-10-01T12:47:15.056Z,21.12
2022-10-01T12:49:35.773Z,21.05
2022-10-01T12:51:41.884Z,20.99
2022-10-01T12:54:13.477Z,20.76
2022-10-01T12:56:44.567Z,20.83
2022-10-01T12:59:22.044Z,20.78
2022-10-01T13:01:42.256Z,20.66
2022-10-01T13:03:58.791Z,20.73
2022-10-01T13:06:11.655Z,20.94
2022-10-01T13:08:16.115Z,20.97
2022-10-01T13:10:30.041Z,20.99
2022-10-01T13:12:57.731Z,20.99
2022-10-01T13:15:00.262Z,20.96
2022-10-01T13:17:33.891Z,20.91
2022-10-01T13:19:48.191Z,20.82
2022-10-01T13:22:14.566Z,20.52
2022-10-01T13:24:40.892Z,20.61
2022-10-01T13:26:58.486Z,20.51
2022-10-01T13:29:15.424Z,20.41
2022-10-01T13:31:21.751Z,20.40
2022-10-01T13:33:26.704Z,20.30
2022-10-01T13:35:36.547Z,20.49
2022-10-01T13:37:39.884Z,20.56
2022-10-01T13:39:43.703Z,20.66
2022-10-01T13:41:45.636Z,20.51
2022-10-01T13:43:59.260Z,20.53
2022-10-01T13:46:11.602Z,20.45
2022-10-01T13:48:24.032Z,20.23
2022-10-01T13:50:25.724Z,20.49
2022-10-01T13:52:28.157Z,20.46
2022-10-01T13:54:50.458Z,20.64
2022-10-01T13:56:52.083Z,20.58
2022-10-01T13:58:54.022Z,20.70
2022-10-01T14:00:59.377Z,20.71
2022-10-01T14:03:46.402Z,20.74
2022-10-01T14:05:55.860Z,20.72
2022-10-01T14:08:12.621Z,20.52
2022-10-01T14:10:15.689Z,20.46
2022-10-01T14:12:43.781Z,20.30
2022-10-01T14:15:15.122Z,20.35
2022-10-01T14:17:22.484Z,20.55
2022-10-01T14:19:26.349Z,20.68
2022-10-01T14:21:42.912Z,20.79
2022-10-01T14:24:05.404Z,20.76
2022-10-01T14:26:37.695Z,20.81
2022-10-01T14:28:47.284Z,20.75
2022-10-01T14:31:01.947Z,20.90
2022-10-01T14:33:30.104Z,20.96
2022-10-01T14:35:38.464Z,21.16
2022-10-01T14:37:40.694Z,21.18
2022-10-01T14:39:42.638Z,21.03
2022-10-01T14:41:45.896Z,21.08
2022-10-01T14:43:47.571Z,21.12
2022-10-01T14:46:01.090Z,21.05
2022-10-01T14:48:04.563Z,21.00
2022-10-01T14:50:22.086Z,20.92
2022-10-01T14:52:27.923Z,20.89
2022-10-01T14:54:33.749Z,20.91
2022-10-01T14:56:35.877Z,20.82
2022-10-01T14:58:41.719Z,20.97
2022-10-01T15:00:58.005Z,20.95
2022-10-01T15:03:15.190Z,20.99
2022-10-01T15:05:30.769Z,20.97
2022-10-01T15:07:36.663Z,20.98
2022-10-01T15:09:38.267Z,21.00
2022-10-01T15:11:44.518Z,21.06
2022-10-01T15:13:49.634Z,21.11
2022-10-01T15:15:53.440Z,21.30
2022-10-01T15:17:55.861Z,21.17
2022-10-01T15:19:58.692Z,21.24
2022-10-01T15:22:02.367Z,21.17
2022-10-01T15:24:06.814Z,21.15
2022-10-01T15:26:12.157Z,21.13
2022-10-01T15:28:26.947Z,21.24
2022-10-01T15:30:29.132Z,21.20
2022-10-01T15:32:30.917Z,21.32
2022-10-01T15:34:33.245Z,21.42
2022-10-01T15:36:36.455Z,21.64
2022-10-01T15:38:39.316Z,21.42
2022-10-01T15:41:13.934Z,21.68
2022-10-01T15:43:42.215Z,21.75
2022-10-01T15:45:44.043Z,21.85
2022-10-01T15:47:51.893Z,21.98
2022-10-01T15:50:06.644Z,21.98
2022-10-01T15:52:34.857Z,22.04
2022-10-01T15:54:37.431Z,21.80
2022-10-01T15:56:42.116Z,21.73
2022-10-01T15:58:54.665Z,21.70
2022-10-01T16:01:21.446Z,21.42
2022-10-01T16:03:29.252Z,21.31
2022-10-01T16:05:47.396Z,21.37
2022-10-01T16:07:58.453Z,21.40
2022-10-01T16:10:14.444Z,21.43
2022-10-01T16:12:22.330Z,21.33
2022-10-01T16:14:29.758Z,21.40
2022-10-01T16:16:31.530Z,21.05
2022-10-01T16:18:34.918Z,21.13
2022-10-01T16:20:43.910Z,21.14
2022-10-01T16:22:47.083Z,21.11
2022-10-01T16:24:51.500Z,20.91
2022-10-01T16:27:00.555Z,20.94
2022-10-01T16:29:22.272Z,20.81
2022-10-01T16:31:25.655Z,20.82
2022-10-01T16:33:27.387Z,20.61
2022-10-01T16:35:32.838Z,20.78
2022-10-01T16:37:35.320Z,20.75
2022-10-01T16:39:37.035Z,20.62
2022-10-01T16:41:39.126Z,20.61
2022-10-01T16:43:40.841Z,20.69
2022-10-01T16:45:42.871Z,20.66
2022-10-01T16:47:45.620Z,20.67
2022-10-01T16:49:48.481Z,20.51
2022-10-01T16:51:54.235Z,20.45
2022-10-01T16:53:57.041Z,20.48
2022-10-01T16:55:58.726Z,20.26
2022-10-01T16:58:02.099Z,20.21
2022-10-01T17:00:04.161Z,20.22
2022-10-01T17:02:11.794Z,20.14
2022-10-01T17:04:14.135Z,20.14
2022-10-01T17:06:15.907Z,20.12
2022-10-01T17:08:17.633Z,20.01
2022-10-01T17:10:24.953Z,19.99
2022-10-01T17:12:27.072Z,19.91
2022-10-01T17:14:28.758Z,19.83
2022-10-01T17:16:30.614Z,20.00
2022-10-01T17:18:32.485Z,19.78
2022-10-01T17:20:35.392Z,19.70
2022-10-01T17:22:39.037Z,19.82
2022-10-01T17:24:40.693Z,19.90
2022-10-01T17:26:45.369Z,19.86
2022-10-01T17:28:47.153Z,19.92
2022-10-01T17:30:51.190Z,19.79
2022-10-01T17:32:52.863Z,19.77
2022-10-01T17:34:54.558Z,19.74
2022-10-01T17:36:56.294Z,19.79
2022-10-01T17:38:58.097Z,19.78
2022-10-01T17:41:01.864Z,19.70
2022-10-01T17:43:04.022Z,19.68
2022-10-01T17:45:09.015Z,19.65
2022-10-01T17:47:10.718Z,19.66
2022-10-01T17:49:13.069Z,19.63
2022-10-01T17:51:15.880Z,19.51
2022-10-01T17:53:17.500Z,19.59
2022-10-01T17:55:20.764Z,19.48
2022-10-01T17:57:22.406Z,19.51
2022-10-01T17:59:24.124Z,19.45
2022-10-01T18:01:26.645Z,19.45
2022-10-01T18:03:28.430Z,19.40
2022-10-01T18:05:30.760Z,19.38
2022-10-01T18:07:32.391Z,19.30
2022-10-01T18:09:35.810Z,19.38
2022-10-01T18:11:38.415Z,19.30
2022-10-01T18:13:40.380Z,18.88
2022-10-01T18:15:42.088Z,19.11
2022-10-01T18:17:51.053Z,19.14
2022-10-01T18:19:54.209Z,19.14
2022-10-01T18:21:57.523Z,19.14
2022-10-01T18:24:03.973Z,19.07
2022-10-01T18:26:06.838Z,19.05
2022-10-01T18:28:08.667Z,19.08
2022-10-01T18:30:10.891Z,19.01
2022-10-01T18:32:17.688Z,19.06
2022-10-01T18:34:28.823Z,18.97
2022-10-01T18:37:05.270Z,19.06
2022-10-01T18:39:33.474Z,19.05
2022-10-01T18:41:38.829Z,19.05
2022-10-01T18:43:42.305Z,18.89
2022-10-01T18:46:04.802Z,18.81
2022-10-01T18:48:31.966Z,18.84
2022-10-01T18:50:36.723Z,18.75
2022-10-01T18:52:57.576Z,18.52
2022-10-01T18:54:59.080Z,18.73
2022-10-01T18:57:21.578Z,18.70
2022-10-01T18:59:28.254Z,18.57
2022-10-01T19:01:43.325Z,18.52
2022-10-01T19:04:10.594Z,18.48
2022-10-01T19:06:38.675Z,18.56
2022-10-01T19:09:03.829Z,18.52
2022-10-01T19:11:22.251Z,18.58
2022-10-01T19:13:42.638Z,18.48
2022-10-01T19:16:03.742Z,18.42
2022-10-01T19:18:31.548Z,18.43
2022-10-01T19:20:54.039Z,18.39
2022-10-01T19:23:14.319Z,18.39
2022-10-01T19:25:27.177Z,18.35
2022-10-01T19:27:57.170Z,18.38
2022-10-01T19:30:16.431Z,18.42
2022-10-01T19:32:22.912Z,18.38
2022-10-01T19:34:46.494Z,18.38
2022-10-01T19:36:57.454Z,18.40
2022-10-01T19:39:03.733Z,18.34
2022-10-01T19:41:16.187Z,18.33
2022-10-01T19:43:26.776Z,18.49
2022-10-01T19:45:51.278Z,18.28
2022-10-01T19:47:53.787Z,18.35
2022-10-01T19:50:06.514Z,18.43
2022-10-01T19:52:13.344Z,18.41
2022-10-01T19:54:21.204Z,18.48
2022-10-01T19:56:28.554Z,18.31
2022-10-01T19:58:32.697Z,18.36
2022-10-01T20:00:34.634Z,18.30
2022-10-01T20:03:30.361Z,18.45
2022-10-01T20:05:54.907Z,18.20
2022-10-01T20:08:11.310Z,18.20
2022-10-01T20:10:31.266Z,18.29
2022-10-01T20:12:54.093Z,18.21
2022-10-01T20:15:09.448Z,18.20
2022-10-01T20:17:35.722Z,18.08
2022-10-01T20:19:55.984Z,18.13
2022-10-01T20:22:06.285Z,18.10
2022-10-01T20:24:29.037Z,18.14
2022-10-01T20:26:45.420Z,18.15
2022-10-01T20:28:52.083Z,18.07
2022-10-01T20:31:23.187Z,18.18
2022-10-01T20:33:53.807Z,18.18
2022-10-01T20:36:10.679Z,17.99
2022-10-01T20:38:20.826Z,18.07
2022-10-01T20:40:30.191Z,18.06
2022-10-01T20:42:38.580Z,17.86
2022-10-01T20:44:40.617Z,17.94
2022-10-01T20:46:52.789Z,17.81
2022-10-01T20:49:02.906Z,17.75
2022-10-01T20:51:31.558Z,17.88
2022-10-01T20:53:38.985Z,17.89
2022-10-01T20:55:47.995Z,17.90
2022-10-01T20:57:54.628Z,17.91
2022-10-01T21:00:08.423Z,17.89
2022-10-01T21:02:20.969Z,17.86
2022-10-01T21:04:28.116Z,17.84
2022-10-01T21:06:45.925Z,17.77
2022-10-01T21:08:57.416Z,17.83
2022-10-01T21:11:04.479Z,17.83
2022-10-01T21:13:33.203Z,17.87
2022-10-01T21:16:01.623Z,17.65
2022-10-01T21:18:15.927Z,17.75
2022-10-01T21:20:32.616Z,17.68
2022-10-01T21:22:56.590Z,17.70
2022-10-01T21:25:15.435Z,17.73
2022-10-01T21:27:24.210Z,17.65
2022-10-01T21:29:50.690Z,17.74
2022-10-01T21:32:20.461Z,17.74
2022-10-01T21:34:33.984Z,17.69
2022-10-01T21:37:03.136Z,17.59
2022-10-01T21:39:40.977Z,17.69
2022-10-01T21:41:53.650Z,17.59
2022-10-01T21:44:28.565Z,17.63
2022-10-01T21:46:41.184Z,17.38
2022-10-01T21:49:01.435Z,17.59
2022-10-01T21:51:15.263Z,17.65
2022-10-01T21:53:58.453Z,17.59
2022-10-01T21:56:35.907Z,17.58
2022-10-01T21:58:47.509Z,17.56
2022-10-01T22:01:33.899Z,17.55
2022-10-01T22:03:45.119Z,17.38
2022-10-01T22:06:12.867Z,17.48
2022-10-01T22:08:31.430Z,17.48
2022-10-01T22:10:41.804Z,17.48
2022-10-01T22:12:49.618Z,17.56
2022-10-01T22:14:53.797Z,17.46
2022-10-01T22:16:57.688Z,17.45
2022-10-01T22:19:16.882Z,17.47
2022-10-01T22:21:31.104Z,17.37
2022-10-01T22:23:38.367Z,17.45
2022-10-01T22:25:51.819Z,17.51
2022-10-01T22:28:06.178Z,17.56
2022-10-01T22:30:13.177Z,17.47
2022-10-01T22:32:19.376Z,17.58
2022-10-01T22:34:25.498Z,17.56
2022-10-01T22:36:41.446Z,17.52
2022-10-01T22:38:54.067Z,17.47
2022-10-01T22:41:06.905Z,17.44
2022-10-01T22:43:13.715Z,17.46
2022-10-01T22:45:17.787Z,17.52
2022-10-01T22:47:41.007Z,17.45
2022-10-01T22:50:07.450Z,17.58
2022-10-01T22:52:41.175Z,17.52
2022-10-01T22:55:18.515Z,17.36
2022-10-01T22:57:36.344Z,17.48
2022-10-01T23:00:02.841Z,17.55
2022-10-01T23:02:18.017Z,17.59
2022-10-01T23:05:06.360Z,17.56
2022-10-01T23:07:23.271Z,17.46
2022-10-01T23:09:24.835Z,17.38
2022-10-01T23:11:35.008Z,17.28
2022-10-01T23:14:01.376Z,17.26
2022-10-01T23:16:24.525Z,17.27
2022-10-01T23:18:50.818Z,17.31
2022-10-01T23:21:23.336Z,17.19
2022-10-01T23:23:32.025Z,17.18
2022-10-01T23:25:33.619Z,17.16
2022-10-01T23:27:59.830Z,17.13
2022-10-01T23:30:14.421Z,16.98
2022-10-01T23:32:37.420Z,17.00
2022-10-01T23:34:57.000Z,16.91
2022-10-01T23:37:41.064Z,17.04
2022-10-01T23:39:47.747Z,17.06
2022-10-01T23:42:30.424Z,17.07
2022-10-01T23:45:20.585Z,16.96
2022-10-01T23:48:08.618Z,17.06
2022-10-01T23:50:23.204Z,16.96
2022-10-01T23:52:39.069Z,16.95
2022-10-01T23:54:52.026Z,16.92
2022-10-01T23:57:06.312Z,16.99
2022-10-01T23:59:34.082Z,16.88
